KARV/ARV METAR and TAF weather

Enter ICAO airport designator
Station Type Date Time Source
KARV METAR 2021/06/24 06:15 UTC NOAA

KARV 240615Z AUTO 20009KT 10SM CLR 19/14 A2979 RMK AO2 T01880136


Station Type Date Time Source
KARV Decoded METAR 2021/06/24 06:15 UTC NOAA

Minocqua/Woodruff, Lakeland Airport/Noble F. Lee Memorial Field, WI, United States (KARV) 45-56N 089-44W
Jun 24, 2021 - 02:15 AM EDT / 2021.06.24 0615 UTC
Wind: from the SSW (200 degrees) at 10 MPH (9 KT):0
Visibility: 10 mile(s):0
Sky conditions: clear
Temperature: 65.8 F (18.8 C)
Dew Point: 56.5 F (13.6 C)
Relative Humidity: 71%
Pressure (altimeter): 29.79 in. Hg (1008 hPa)
ob: KARV 240615Z AUTO 20009KT 10SM CLR 19/14 A2979 RMK AO2 T01880136
cycle: 6

Station Type Date Time Source
KARV TAF UTC NOAA

Error!

Example: see airport list